Strona główna
METAR-TAF:

Lotnisko :

Albert, Francja

Szerokość geograficzna: 49-58-21N, Długość geograficzna: 002-41-29E, wysokość: 111 m

Aktualna obserwacja pogody

Raport powstał 19 minut temu, godzina 21:30 UTC
Wiatr 7 kt od wschód
Temperatura 11°C
Wilgotność 66%
Ciśnienie 1015 hPa
Widzialność 10 km lub więcej
Brak chmur poniżej 1500 m i brak chmur cumulonimbus

METAR: LFAQ 052130Z AUTO 08007KT CAVOK 11/05 Q1015

czas: 23:49 (21:49 UTC)

Prognoza

Raport powstał 7 godziny i 49 minut temu, godzina 14:00 UTC
Prognoza ważna od 05 godzina 15 UTC do 05 godzina 24 UTC
Wiatr 11 kt od wschodnio-południowy wschód
Widzialność 10 km lub więcej
Brak chmur poniżej 1500 m i brak chmur cumulonimbus

TAF: LFAQ 051400Z 0515/0524 11011KT CAVOK

METAR-TAF

Obserwacja i prognoza pogody dla ponad 4000 lotnisk (raport METAR i TAF).

Dostępne stacje oznaczono żółtymi i czerwonymi punktami na mapie.

Najedź kursorem aby zobaczyć nazwę stacji.

Kliknij aby zobaczyć obserwacje i prognozy pogody.

Aby zmienić mapę: kliknij na zielony przycisk z czarnym krzyżykiem, aby powiększyć; na zielony przycisk z myślnikiem, aby pomniejszyć; na zielone strzałki, aby przejść do map sąsiednich.


METAR-TAF: